sensor_id;sensor_type;location;lat;lon;timestamp;pressure;altitude;pressure_sealevel;temperature;humidity
20930;BME280;21895;47.072;15.132;2023-02-13T00:00:24;98756.00;;;-1.40;69.99
20930;BME280;21895;47.072;15.132;2023-02-13T00:02:51;98750.00;;;-1.57;70.49
20930;BME280;21895;47.072;15.132;2023-02-13T00:05:17;98750.00;;;-1.42;72.01
20930;BME280;21895;47.072;15.132;2023-02-13T00:07:44;98750.00;;;-1.48;70.75
20930;BME280;21895;47.072;15.132;2023-02-13T00:10:11;98748.00;;;-1.62;69.79
20930;BME280;21895;47.072;15.132;2023-02-13T00:12:37;98749.00;;;-1.86;70.92
20930;BME280;21895;47.072;15.132;2023-02-13T00:15:06;98742.00;;;-1.78;71.60
20930;BME280;21895;47.072;15.132;2023-02-13T00:17:33;98751.00;;;-1.76;71.22
20930;BME280;21895;47.072;15.132;2023-02-13T00:19:59;98745.00;;;-1.69;71.01
20930;BME280;21895;47.072;15.132;2023-02-13T00:22:26;98747.00;;;-1.81;70.32
20930;BME280;21895;47.072;15.132;2023-02-13T00:24:53;98760.00;;;-1.88;70.89
20930;BME280;21895;47.072;15.132;2023-02-13T00:27:19;98756.00;;;-1.77;70.95
20930;BME280;21895;47.072;15.132;2023-02-13T00:29:46;98752.00;;;-1.75;71.43
20930;BME280;21895;47.072;15.132;2023-02-13T00:32:13;98753.00;;;-1.69;72.19
20930;BME280;21895;47.072;15.132;2023-02-13T00:34:40;98757.00;;;-1.62;72.16
20930;BME280;21895;47.072;15.132;2023-02-13T00:37:09;98755.00;;;-1.46;72.10
20930;BME280;21895;47.072;15.132;2023-02-13T00:39:36;98757.00;;;-1.43;70.68
20930;BME280;21895;47.072;15.132;2023-02-13T00:42:02;98754.00;;;-1.56;70.32
20930;BME280;21895;47.072;15.132;2023-02-13T00:44:29;98756.00;;;-1.68;70.40
20930;BME280;21895;47.072;15.132;2023-02-13T00:46:55;98757.00;;;-1.68;71.19
20930;BME280;21895;47.072;15.132;2023-02-13T00:49:22;98757.00;;;-1.68;71.07
20930;BME280;21895;47.072;15.132;2023-02-13T00:51:48;98751.00;;;-1.64;70.53
20930;BME280;21895;47.072;15.132;2023-02-13T00:54:15;98763.00;;;-1.78;70.66
20930;BME280;21895;47.072;15.132;2023-02-13T00:56:41;98759.00;;;-1.76;71.69
20930;BME280;21895;47.072;15.132;2023-02-13T00:59:08;98761.00;;;-1.71;71.59
20930;BME280;21895;47.072;15.132;2023-02-13T01:01:34;98761.00;;;-1.60;70.96
20930;BME280;21895;47.072;15.132;2023-02-13T01:04:01;98767.00;;;-1.82;69.62
20930;BME280;21895;47.072;15.132;2023-02-13T01:06:27;98768.00;;;-2.13;70.46
20930;BME280;21895;47.072;15.132;2023-02-13T01:08:54;98759.00;;;-2.09;71.11
20930;BME280;21895;47.072;15.132;2023-02-13T01:11:20;98751.00;;;-2.09;71.27
20930;BME280;21895;47.072;15.132;2023-02-13T01:13:47;98760.00;;;-1.97;72.36
20930;BME280;21895;47.072;15.132;2023-02-13T01:16:13;98759.00;;;-1.85;71.97
20930;BME280;21895;47.072;15.132;2023-02-13T01:18:43;98755.00;;;-1.76;71.89
20930;BME280;21895;47.072;15.132;2023-02-13T01:21:18;98745.00;;;-1.75;71.18
20930;BME280;21895;47.072;15.132;2023-02-13T01:23:45;98743.00;;;-1.69;70.90
20930;BME280;21895;47.072;15.132;2023-02-13T01:26:19;98745.00;;;-2.00;69.87
20930;BME280;21895;47.072;15.132;2023-02-13T01:28:46;98742.00;;;-2.13;71.17
20930;BME280;21895;47.072;15.132;2023-02-13T01:31:13;98736.00;;;-2.05;72.34
20930;BME280;21895;47.072;15.132;2023-02-13T01:33:39;98736.00;;;-1.86;72.83
20930;BME280;21895;47.072;15.132;2023-02-13T01:36:11;98735.00;;;-1.93;70.89
20930;BME280;21895;47.072;15.132;2023-02-13T01:38:39;98738.00;;;-2.00;70.98
20930;BME280;21895;47.072;15.132;2023-02-13T01:41:07;98738.00;;;-1.91;71.10
20930;BME280;21895;47.072;15.132;2023-02-13T01:43:55;98743.00;;;-1.93;70.16
20930;BME280;21895;47.072;15.132;2023-02-13T01:46:40;98738.00;;;-2.06;70.21
20930;BME280;21895;47.072;15.132;2023-02-13T01:49:22;98738.00;;;-2.12;70.64
20930;BME280;21895;47.072;15.132;2023-02-13T01:51:53;98741.00;;;-2.21;69.54
20930;BME280;21895;47.072;15.132;2023-02-13T01:54:27;98746.00;;;-2.20;69.64
20930;BME280;21895;47.072;15.132;2023-02-13T01:57:13;98748.00;;;-2.17;70.01
20930;BME280;21895;47.072;15.132;2023-02-13T01:59:56;98742.00;;;-2.09;70.56
20930;BME280;21895;47.072;15.132;2023-02-13T02:02:25;98741.00;;;-2.09;71.18
20930;BME280;21895;47.072;15.132;2023-02-13T02:04:52;98742.00;;;-1.98;71.15
20930;BME280;21895;47.072;15.132;2023-02-13T02:07:26;98737.00;;;-1.90;71.26
20930;BME280;21895;47.072;15.132;2023-02-13T02:10:00;98744.00;;;-1.95;72.03
20930;BME280;21895;47.072;15.132;2023-02-13T02:12:46;98746.00;;;-1.88;71.76
20930;BME280;21895;47.072;15.132;2023-02-13T02:15:15;98744.00;;;-1.70;70.90
20930;BME280;21895;47.072;15.132;2023-02-13T02:17:42;98744.00;;;-1.91;69.47
20930;BME280;21895;47.072;15.132;2023-02-13T02:24:51;98753.00;;;-2.03;69.76
20930;BME280;21895;47.072;15.132;2023-02-13T02:39:05;98741.00;;;-2.35;70.72
20930;BME280;21895;47.072;15.132;2023-02-13T02:44:39;98732.00;;;-2.27;71.44
20930;BME280;21895;47.072;15.132;2023-02-13T02:47:31;98743.00;;;-2.44;69.89
20930;BME280;21895;47.072;15.132;2023-02-13T02:50:52;98736.00;;;-2.42;70.79
20930;BME280;21895;47.072;15.132;2023-02-13T02:53:41;98746.00;;;-2.52;70.73
20930;BME280;21895;47.072;15.132;2023-02-13T02:56:53;98740.00;;;-2.44;71.69
20930;BME280;21895;47.072;15.132;2023-02-13T02:59:26;98748.00;;;-2.36;71.24
20930;BME280;21895;47.072;15.132;2023-02-13T03:02:12;98748.00;;;-2.36;71.05
20930;BME280;21895;47.072;15.132;2023-02-13T03:06:17;98748.00;;;-2.40;70.68
20930;BME280;21895;47.072;15.132;2023-02-13T03:08:57;98749.00;;;-2.41;71.76
20930;BME280;21895;47.072;15.132;2023-02-13T03:11:48;98753.00;;;-2.29;71.51
20930;BME280;21895;47.072;15.132;2023-02-13T03:14:35;98750.00;;;-2.49;69.19
20930;BME280;21895;47.072;15.132;2023-02-13T03:17:03;98738.00;;;-2.72;69.11
20930;BME280;21895;47.072;15.132;2023-02-13T03:20:45;98736.00;;;-2.88;70.17
20930;BME280;21895;47.072;15.132;2023-02-13T03:26:55;98736.00;;;-2.88;70.23
20930;BME280;21895;47.072;15.132;2023-02-13T03:29:52;98737.00;;;-2.72;71.41
20930;BME280;21895;47.072;15.132;2023-02-13T03:33:00;98731.00;;;-2.75;70.94
20930;BME280;21895;47.072;15.132;2023-02-13T03:35:45;98733.00;;;-2.77;70.70
20930;BME280;21895;47.072;15.132;2023-02-13T03:39:08;98733.00;;;-2.72;71.22
20930;BME280;21895;47.072;15.132;2023-02-13T03:42:01;98732.00;;;-2.60;70.42
20930;BME280;21895;47.072;15.132;2023-02-13T03:46:07;98730.00;;;-2.71;69.65
20930;BME280;21895;47.072;15.132;2023-02-13T03:48:39;98721.00;;;-2.73;69.35
20930;BME280;21895;47.072;15.132;2023-02-13T03:51:36;98718.00;;;-2.89;69.13
20930;BME280;21895;47.072;15.132;2023-02-13T03:54:15;98717.00;;;-2.85;69.20
20930;BME280;21895;47.072;15.132;2023-02-13T03:56:44;98710.00;;;-2.91;69.49
20930;BME280;21895;47.072;15.132;2023-02-13T03:59:34;98712.00;;;-2.90;69.98
20930;BME280;21895;47.072;15.132;2023-02-13T04:02:19;98716.00;;;-2.89;69.60
20930;BME280;21895;47.072;15.132;2023-02-13T04:05:07;98720.00;;;-2.93;70.03
20930;BME280;21895;47.072;15.132;2023-02-13T04:07:34;98712.00;;;-3.01;70.10
20930;BME280;21895;47.072;15.132;2023-02-13T04:10:09;98711.00;;;-3.01;70.04
20930;BME280;21895;47.072;15.132;2023-02-13T04:13:30;98710.00;;;-3.00;70.38
20930;BME280;21895;47.072;15.132;2023-02-13T04:16:09;98710.00;;;-2.99;70.62
20930;BME280;21895;47.072;15.132;2023-02-13T04:18:38;98707.00;;;-2.86;70.83
20930;BME280;21895;47.072;15.132;2023-02-13T04:21:06;98708.00;;;-2.80;70.96
20930;BME280;21895;47.072;15.132;2023-02-13T04:23:33;98713.00;;;-2.89;70.51
20930;BME280;21895;47.072;15.132;2023-02-13T04:26:13;98708.00;;;-2.87;70.66
20930;BME280;21895;47.072;15.132;2023-02-13T04:28:41;98714.00;;;-2.87;70.63
20930;BME280;21895;47.072;15.132;2023-02-13T04:31:08;98717.00;;;-2.93;71.20
20930;BME280;21895;47.072;15.132;2023-02-13T04:33:34;98708.00;;;-2.86;71.36
20930;BME280;21895;47.072;15.132;2023-02-13T04:36:01;98711.00;;;-2.73;70.72
20930;BME280;21895;47.072;15.132;2023-02-13T04:38:27;98710.00;;;-2.72;69.79
20930;BME280;21895;47.072;15.132;2023-02-13T04:40:54;98715.00;;;-2.77;69.46
20930;BME280;21895;47.072;15.132;2023-02-13T04:43:20;98710.00;;;-2.70;69.36
20930;BME280;21895;47.072;15.132;2023-02-13T04:45:50;98705.00;;;-2.79;69.72
20930;BME280;21895;47.072;15.132;2023-02-13T04:48:17;98700.00;;;-2.80;70.60
20930;BME280;21895;47.072;15.132;2023-02-13T04:50:43;98704.00;;;-2.81;70.30
20930;BME280;21895;47.072;15.132;2023-02-13T04:53:10;98706.00;;;-2.83;70.86
20930;BME280;21895;47.072;15.132;2023-02-13T04:55:36;98708.00;;;-2.94;70.64
20930;BME280;21895;47.072;15.132;2023-02-13T04:58:03;98698.00;;;-2.87;70.90
20930;BME280;21895;47.072;15.132;2023-02-13T05:00:29;98708.00;;;-3.05;69.56
20930;BME280;21895;47.072;15.132;2023-02-13T05:03:09;98709.00;;;-3.12;70.39
20930;BME280;21895;47.072;15.132;2023-02-13T05:05:36;98706.00;;;-3.14;71.79
20930;BME280;21895;47.072;15.132;2023-02-13T05:08:05;98700.00;;;-2.97;72.15
20930;BME280;21895;47.072;15.132;2023-02-13T05:10:32;98704.00;;;-2.96;71.13
20930;BME280;21895;47.072;15.132;2023-02-13T05:12:59;98705.00;;;-2.99;70.30
20930;BME280;21895;47.072;15.132;2023-02-13T05:15:26;98703.00;;;-3.10;69.72
20930;BME280;21895;47.072;15.132;2023-02-13T05:17:53;98701.00;;;-3.17;69.95
20930;BME280;21895;47.072;15.132;2023-02-13T05:20:19;98706.00;;;-3.12;70.79
20930;BME280;21895;47.072;15.132;2023-02-13T05:22:48;98705.00;;;-3.02;71.28
20930;BME280;21895;47.072;15.132;2023-02-13T05:25:35;98702.00;;;-2.91;70.95
20930;BME280;21895;47.072;15.132;2023-02-13T05:28:02;98706.00;;;-2.84;70.89
20930;BME280;21895;47.072;15.132;2023-02-13T05:30:29;98705.00;;;-2.88;70.16
20930;BME280;21895;47.072;15.132;2023-02-13T05:32:56;98714.00;;;-2.94;69.49
20930;BME280;21895;47.072;15.132;2023-02-13T05:35:23;98712.00;;;-3.01;69.42
20930;BME280;21895;47.072;15.132;2023-02-13T05:37:50;98716.00;;;-3.02;69.66
20930;BME280;21895;47.072;15.132;2023-02-13T05:40:17;98715.00;;;-3.12;70.31
20930;BME280;21895;47.072;15.132;2023-02-13T05:42:44;98710.00;;;-2.93;69.51
20930;BME280;21895;47.072;15.132;2023-02-13T05:45:10;98703.00;;;-3.02;68.89
20930;BME280;21895;47.072;15.132;2023-02-13T05:47:37;98711.00;;;-3.16;69.52
20930;BME280;21895;47.072;15.132;2023-02-13T05:50:04;98712.00;;;-3.11;70.12
20930;BME280;21895;47.072;15.132;2023-02-13T05:52:30;98705.00;;;-3.13;70.55
20930;BME280;21895;47.072;15.132;2023-02-13T05:54:57;98712.00;;;-3.01;69.91
20930;BME280;21895;47.072;15.132;2023-02-13T05:57:23;98708.00;;;-3.22;68.95
20930;BME280;21895;47.072;15.132;2023-02-13T05:59:50;98718.00;;;-3.32;69.20
20930;BME280;21895;47.072;15.132;2023-02-13T06:02:16;98721.00;;;-3.34;70.33
20930;BME280;21895;47.072;15.132;2023-02-13T06:04:43;98717.00;;;-3.30;70.17
20930;BME280;21895;47.072;15.132;2023-02-13T06:07:09;98713.00;;;-3.20;69.93
20930;BME280;21895;47.072;15.132;2023-02-13T06:09:36;98721.00;;;-3.08;69.81
20930;BME280;21895;47.072;15.132;2023-02-13T06:12:03;98720.00;;;-3.04;70.19
20930;BME280;21895;47.072;15.132;2023-02-13T06:14:29;98720.00;;;-2.88;70.07
20930;BME280;21895;47.072;15.132;2023-02-13T06:16:56;98717.00;;;-2.96;69.48
20930;BME280;21895;47.072;15.132;2023-02-13T06:19:22;98723.00;;;-2.91;68.83
20930;BME280;21895;47.072;15.132;2023-02-13T06:21:48;98722.00;;;-2.96;68.58
20930;BME280;21895;47.072;15.132;2023-02-13T06:24:15;98730.00;;;-2.99;68.03
20930;BME280;21895;47.072;15.132;2023-02-13T06:26:42;98729.00;;;-2.94;68.19
20930;BME280;21895;47.072;15.132;2023-02-13T06:29:09;98722.00;;;-2.98;68.26
20930;BME280;21895;47.072;15.132;2023-02-13T06:31:36;98730.00;;;-3.01;67.90
20930;BME280;21895;47.072;15.132;2023-02-13T06:34:03;98732.00;;;-3.07;68.06
20930;BME280;21895;47.072;15.132;2023-02-13T06:36:29;98725.00;;;-3.06;69.35
20930;BME280;21895;47.072;15.132;2023-02-13T06:38:56;98733.00;;;-2.87;69.80
20930;BME280;21895;47.072;15.132;2023-02-13T06:41:22;98726.00;;;-2.83;69.89
20930;BME280;21895;47.072;15.132;2023-02-13T06:43:49;98731.00;;;-2.82;70.00
20930;BME280;21895;47.072;15.132;2023-02-13T06:46:16;98734.00;;;-2.62;69.56
20930;BME280;21895;47.072;15.132;2023-02-13T06:48:42;98744.00;;;-2.58;69.49
20930;BME280;21895;47.072;15.132;2023-02-13T06:51:09;98742.00;;;-2.42;69.35
20930;BME280;21895;47.072;15.132;2023-02-13T06:53:35;98739.00;;;-2.40;69.55
20930;BME280;21895;47.072;15.132;2023-02-13T06:56:04;98744.00;;;-2.21;70.10
20930;BME280;21895;47.072;15.132;2023-02-13T06:58:31;98740.00;;;-2.07;69.96
20930;BME280;21895;47.072;15.132;2023-02-13T07:00:59;98741.00;;;-1.94;70.53
20930;BME280;21895;47.072;15.132;2023-02-13T07:03:26;98744.00;;;-1.74;70.45
20930;BME280;21895;47.072;15.132;2023-02-13T07:05:52;98737.00;;;-1.55;70.45
20930;BME280;21895;47.072;15.132;2023-02-13T07:08:19;98748.00;;;-1.39;70.30
20930;BME280;21895;47.072;15.132;2023-02-13T07:10:45;98745.00;;;-1.30;69.92
20930;BME280;21895;47.072;15.132;2023-02-13T07:13:12;98742.00;;;-1.21;69.04
20930;BME280;21895;47.072;15.132;2023-02-13T07:15:39;98740.00;;;-1.12;69.20
20930;BME280;21895;47.072;15.132;2023-02-13T07:18:06;98738.00;;;-1.15;70.07
20930;BME280;21895;47.072;15.132;2023-02-13T07:20:33;98737.00;;;-0.95;70.49
20930;BME280;21895;47.072;15.132;2023-02-13T07:23:02;98737.00;;;-0.78;70.73
20930;BME280;21895;47.072;15.132;2023-02-13T07:25:29;98732.00;;;-0.63;71.08
20930;BME280;21895;47.072;15.132;2023-02-13T07:28:03;98732.00;;;-0.42;71.13
20930;BME280;21895;47.072;15.132;2023-02-13T07:30:32;98727.00;;;-0.31;71.75
20930;BME280;21895;47.072;15.132;2023-02-13T07:33:03;98727.00;;;-0.24;72.12
20930;BME280;21895;47.072;15.132;2023-02-13T07:35:31;98730.00;;;-0.06;72.02
20930;BME280;21895;47.072;15.132;2023-02-13T07:37:57;98727.00;;;0.08;72.04
20930;BME280;21895;47.072;15.132;2023-02-13T07:40:25;98730.00;;;0.13;71.80
20930;BME280;21895;47.072;15.132;2023-02-13T07:42:52;98725.00;;;0.24;71.68
20930;BME280;21895;47.072;15.132;2023-02-13T07:45:18;98717.00;;;0.43;71.43
20930;BME280;21895;47.072;15.132;2023-02-13T07:47:45;98712.00;;;0.55;71.10
20930;BME280;21895;47.072;15.132;2023-02-13T07:50:11;98711.00;;;0.78;70.99
20930;BME280;21895;47.072;15.132;2023-02-13T07:52:38;98709.00;;;1.01;70.74
20930;BME280;21895;47.072;15.132;2023-02-13T07:55:05;98707.00;;;1.14;71.16
20930;BME280;21895;47.072;15.132;2023-02-13T07:57:33;98704.00;;;1.30;71.52
20930;BME280;21895;47.072;15.132;2023-02-13T07:59:59;98697.00;;;1.47;71.79
20930;BME280;21895;47.072;15.132;2023-02-13T08:02:26;98695.00;;;1.55;71.94
20930;BME280;21895;47.072;15.132;2023-02-13T08:04:52;98699.00;;;1.83;71.54
20930;BME280;21895;47.072;15.132;2023-02-13T08:07:19;98698.00;;;1.98;70.95
20930;BME280;21895;47.072;15.132;2023-02-13T08:09:46;98692.00;;;2.08;70.39
20930;BME280;21895;47.072;15.132;2023-02-13T08:12:34;98697.00;;;2.11;69.46
20930;BME280;21895;47.072;15.132;2023-02-13T08:15:01;98700.00;;;2.29;69.81
20930;BME280;21895;47.072;15.132;2023-02-13T08:17:27;98683.00;;;2.47;70.94
20930;BME280;21895;47.072;15.132;2023-02-13T08:19:54;98691.00;;;2.67;71.13
20930;BME280;21895;47.072;15.132;2023-02-13T08:22:20;98685.00;;;2.86;71.02
20930;BME280;21895;47.072;15.132;2023-02-13T08:24:47;98674.00;;;3.08;70.79
20930;BME280;21895;47.072;15.132;2023-02-13T08:27:14;98672.00;;;3.18;70.87
20930;BME280;21895;47.072;15.132;2023-02-13T08:29:41;98677.00;;;3.34;70.54
20930;BME280;21895;47.072;15.132;2023-02-13T08:32:08;98675.00;;;3.70;69.74
20930;BME280;21895;47.072;15.132;2023-02-13T08:34:34;98667.00;;;3.84;69.49
20930;BME280;21895;47.072;15.132;2023-02-13T08:37:02;98676.00;;;3.91;69.49
20930;BME280;21895;47.072;15.132;2023-02-13T08:39:28;98673.00;;;4.06;68.97
20930;BME280;21895;47.072;15.132;2023-02-13T08:41:55;98669.00;;;4.20;68.45
20930;BME280;21895;47.072;15.132;2023-02-13T08:44:21;98668.00;;;4.22;68.49
20930;BME280;21895;47.072;15.132;2023-02-13T08:46:48;98668.00;;;4.29;68.38
20930;BME280;21895;47.072;15.132;2023-02-13T08:49:14;98673.00;;;4.45;68.13
20930;BME280;21895;47.072;15.132;2023-02-13T08:51:41;98660.00;;;4.53;67.76
20930;BME280;21895;47.072;15.132;2023-02-13T08:54:07;98659.00;;;4.62;67.22
20930;BME280;21895;47.072;15.132;2023-02-13T08:56:34;98662.00;;;4.80;66.22
20930;BME280;21895;47.072;15.132;2023-02-13T08:59:00;98664.00;;;4.84;66.37
20930;BME280;21895;47.072;15.132;2023-02-13T09:01:27;98666.00;;;4.97;65.84
20930;BME280;21895;47.072;15.132;2023-02-13T09:03:54;98658.00;;;5.00;65.71
20930;BME280;21895;47.072;15.132;2023-02-13T09:06:21;98656.00;;;5.13;65.08
20930;BME280;21895;47.072;15.132;2023-02-13T09:08:48;98660.00;;;5.34;64.59
20930;BME280;21895;47.072;15.132;2023-02-13T09:11:14;98654.00;;;5.53;64.52
20930;BME280;21895;47.072;15.132;2023-02-13T09:13:41;98655.00;;;5.66;64.23
20930;BME280;21895;47.072;15.132;2023-02-13T09:16:07;98652.00;;;5.75;63.71
20930;BME280;21895;47.072;15.132;2023-02-13T09:18:35;98657.00;;;6.00;62.87
20930;BME280;21895;47.072;15.132;2023-02-13T09:21:10;98654.00;;;6.23;61.98
20930;BME280;21895;47.072;15.132;2023-02-13T09:23:39;98649.00;;;6.47;61.38
20930;BME280;21895;47.072;15.132;2023-02-13T09:26:10;98653.00;;;6.69;61.02
20930;BME280;21895;47.072;15.132;2023-02-13T09:28:38;98656.00;;;6.86;60.30
20930;BME280;21895;47.072;15.132;2023-02-13T09:31:20;98657.00;;;7.04;59.40
20930;BME280;21895;47.072;15.132;2023-02-13T09:33:47;98660.00;;;7.21;58.49
20930;BME280;21895;47.072;15.132;2023-02-13T09:36:21;98662.00;;;7.33;58.57
20930;BME280;21895;47.072;15.132;2023-02-13T09:38:54;98661.00;;;7.52;58.18
20930;BME280;21895;47.072;15.132;2023-02-13T09:41:32;98661.00;;;7.52;57.59
20930;BME280;21895;47.072;15.132;2023-02-13T09:44:34;98661.00;;;7.72;57.20
20930;BME280;21895;47.072;15.132;2023-02-13T09:47:25;98652.00;;;7.96;56.91
20930;BME280;21895;47.072;15.132;2023-02-13T09:50:25;98661.00;;;7.91;56.66
20930;BME280;21895;47.072;15.132;2023-02-13T09:55:46;98672.00;;;8.28;56.37
20930;BME280;21895;47.072;15.132;2023-02-13T09:58:57;98669.00;;;8.10;55.57
20930;BME280;21895;47.072;15.132;2023-02-13T10:01:33;98671.00;;;8.01;56.00
20930;BME280;21895;47.072;15.132;2023-02-13T10:06:21;98666.00;;;8.30;55.30
20930;BME280;21895;47.072;15.132;2023-02-13T10:09:38;98675.00;;;8.51;54.51
20930;BME280;21895;47.072;15.132;2023-02-13T10:18:09;98666.00;;;8.91;52.86
20930;BME280;21895;47.072;15.132;2023-02-13T10:20:54;98667.00;;;8.98;52.93
20930;BME280;21895;47.072;15.132;2023-02-13T10:23:49;98673.00;;;9.04;52.94
20930;BME280;21895;47.072;15.132;2023-02-13T10:26:24;98663.00;;;9.20;52.17
20930;BME280;21895;47.072;15.132;2023-02-13T10:31:29;98657.00;;;9.49;51.29
20930;BME280;21895;47.072;15.132;2023-02-13T10:34:01;98654.00;;;9.17;51.97
20930;BME280;21895;47.072;15.132;2023-02-13T10:36:33;98658.00;;;9.44;51.68
20930;BME280;21895;47.072;15.132;2023-02-13T10:39:29;98657.00;;;9.62;51.22
20930;BME280;21895;47.072;15.132;2023-02-13T10:43:19;98649.00;;;9.62;50.56
20930;BME280;21895;47.072;15.132;2023-02-13T10:47:12;98651.00;;;9.43;51.27
20930;BME280;21895;47.072;15.132;2023-02-13T10:53:05;98642.00;;;9.30;51.90
20930;BME280;21895;47.072;15.132;2023-02-13T10:56:33;98626.00;;;9.60;50.50
20930;BME280;21895;47.072;15.132;2023-02-13T11:04:12;98623.00;;;9.58;51.02
20930;BME280;21895;47.072;15.132;2023-02-13T11:06:56;98622.00;;;9.70;50.38
20930;BME280;21895;47.072;15.132;2023-02-13T11:09:24;98631.00;;;9.92;50.42
20930;BME280;21895;47.072;15.132;2023-02-13T11:11:52;98628.00;;;9.93;50.15
20930;BME280;21895;47.072;15.132;2023-02-13T11:14:25;98625.00;;;10.07;49.83
20930;BME280;21895;47.072;15.132;2023-02-13T11:17:05;98623.00;;;10.17;49.07
20930;BME280;21895;47.072;15.132;2023-02-13T11:19:44;98623.00;;;10.01;48.96
20930;BME280;21895;47.072;15.132;2023-02-13T11:22:15;98612.00;;;9.63;51.09
20930;BME280;21895;47.072;15.132;2023-02-13T11:24:56;98616.00;;;9.93;50.19
20930;BME280;21895;47.072;15.132;2023-02-13T11:27:33;98611.00;;;9.87;50.02
20930;BME280;21895;47.072;15.132;2023-02-13T11:30:46;98606.00;;;10.01;50.04
20930;BME280;21895;47.072;15.132;2023-02-13T11:33:31;98604.00;;;10.13;49.54
20930;BME280;21895;47.072;15.132;2023-02-13T11:36:16;98607.00;;;10.10;49.78
20930;BME280;21895;47.072;15.132;2023-02-13T11:39:20;98600.00;;;9.86;50.35
20930;BME280;21895;47.072;15.132;2023-02-13T11:41:48;98593.00;;;9.67;51.76
20930;BME280;21895;47.072;15.132;2023-02-13T11:44:52;98600.00;;;10.06;51.15
20930;BME280;21895;47.072;15.132;2023-02-13T11:47:39;98600.00;;;9.88;51.13
20930;BME280;21895;47.072;15.132;2023-02-13T11:50:36;98598.00;;;10.08;50.62
20930;BME280;21895;47.072;15.132;2023-02-13T11:53:23;98600.00;;;10.16;50.35
20930;BME280;21895;47.072;15.132;2023-02-13T11:56:14;98599.00;;;9.99;50.54
20930;BME280;21895;47.072;15.132;2023-02-13T11:58:41;98592.00;;;10.03;50.60
20930;BME280;21895;47.072;15.132;2023-02-13T12:01:25;98582.00;;;10.25;49.70
20930;BME280;21895;47.072;15.132;2023-02-13T12:04:16;98579.00;;;10.14;50.47
20930;BME280;21895;47.072;15.132;2023-02-13T12:07:21;98583.00;;;10.32;50.08
20930;BME280;21895;47.072;15.132;2023-02-13T12:10:00;98579.00;;;10.14;50.36
20930;BME280;21895;47.072;15.132;2023-02-13T12:13:34;98574.00;;;10.13;50.83
20930;BME280;21895;47.072;15.132;2023-02-13T12:17:11;98572.00;;;10.22;50.34
20930;BME280;21895;47.072;15.132;2023-02-13T12:19:56;98563.00;;;10.16;50.28
20930;BME280;21895;47.072;15.132;2023-02-13T12:47:27;98545.00;;;10.51;49.30
20930;BME280;21895;47.072;15.132;2023-02-13T12:56:36;98539.00;;;10.48;48.85
20930;BME280;21895;47.072;15.132;2023-02-13T12:59:49;98533.00;;;10.58;48.68
20930;BME280;21895;47.072;15.132;2023-02-13T13:03:54;98532.00;;;10.36;48.78
20930;BME280;21895;47.072;15.132;2023-02-13T13:07:47;98533.00;;;10.29;48.98
20930;BME280;21895;47.072;15.132;2023-02-13T13:17:14;98524.00;;;10.44;49.09
20930;BME280;21895;47.072;15.132;2023-02-13T13:22:23;98525.00;;;10.43;49.05
20930;BME280;21895;47.072;15.132;2023-02-13T13:28:12;98524.00;;;10.50;48.64
20930;BME280;21895;47.072;15.132;2023-02-13T13:30:42;98528.00;;;10.21;49.77
20930;BME280;21895;47.072;15.132;2023-02-13T13:33:21;98529.00;;;10.43;48.69
20930;BME280;21895;47.072;15.132;2023-02-13T13:36:11;98526.00;;;10.54;48.95
20930;BME280;21895;47.072;15.132;2023-02-13T13:39:25;98525.00;;;10.58;48.64
20930;BME280;21895;47.072;15.132;2023-02-13T13:42:28;98522.00;;;10.27;49.12
20930;BME280;21895;47.072;15.132;2023-02-13T13:45:21;98524.00;;;10.40;49.02
20930;BME280;21895;47.072;15.132;2023-02-13T13:49:50;98531.00;;;10.54;49.34
20930;BME280;21895;47.072;15.132;2023-02-13T13:56:03;98534.00;;;10.28;49.08
20930;BME280;21895;47.072;15.132;2023-02-13T13:58:46;98525.00;;;10.49;49.22
20930;BME280;21895;47.072;15.132;2023-02-13T14:01:30;98538.00;;;10.29;49.39
20930;BME280;21895;47.072;15.132;2023-02-13T14:11:01;98539.00;;;10.10;49.19
20930;BME280;21895;47.072;15.132;2023-02-13T14:13:37;98533.00;;;10.24;49.48
20930;BME280;21895;47.072;15.132;2023-02-13T14:16:45;98537.00;;;10.48;48.72
20930;BME280;21895;47.072;15.132;2023-02-13T14:21:04;98541.00;;;10.34;48.68
20930;BME280;21895;47.072;15.132;2023-02-13T14:23:46;98537.00;;;10.38;48.63
20930;BME280;21895;47.072;15.132;2023-02-13T14:26:29;98542.00;;;10.32;49.52
20930;BME280;21895;47.072;15.132;2023-02-13T14:32:15;98533.00;;;10.17;49.04
20930;BME280;21895;47.072;15.132;2023-02-13T14:34:55;98531.00;;;10.03;49.32
20930;BME280;21895;47.072;15.132;2023-02-13T14:37:37;98533.00;;;9.88;49.99
20930;BME280;21895;47.072;15.132;2023-02-13T14:40:48;98529.00;;;9.85;49.97
20930;BME280;21895;47.072;15.132;2023-02-13T14:43:48;98523.00;;;9.88;49.97
20930;BME280;21895;47.072;15.132;2023-02-13T14:46:51;98523.00;;;10.08;49.43
20930;BME280;21895;47.072;15.132;2023-02-13T14:49:33;98527.00;;;10.15;48.74
20930;BME280;21895;47.072;15.132;2023-02-13T14:52:19;98519.00;;;9.90;49.67
20930;BME280;21895;47.072;15.132;2023-02-13T14:55:06;98519.00;;;9.81;49.61
20930;BME280;21895;47.072;15.132;2023-02-13T14:57:44;98521.00;;;9.74;49.86
20930;BME280;21895;47.072;15.132;2023-02-13T15:00:34;98519.00;;;9.71;50.12
20930;BME280;21895;47.072;15.132;2023-02-13T15:03:36;98525.00;;;9.76;50.24
20930;BME280;21895;47.072;15.132;2023-02-13T15:06:39;98514.00;;;9.83;49.99
20930;BME280;21895;47.072;15.132;2023-02-13T15:12:36;98513.00;;;9.69;49.84
20930;BME280;21895;47.072;15.132;2023-02-13T15:15:34;98514.00;;;9.57;50.04
20930;BME280;21895;47.072;15.132;2023-02-13T15:18:08;98509.00;;;9.50;50.21
20930;BME280;21895;47.072;15.132;2023-02-13T15:20:40;98506.00;;;9.45;50.57
20930;BME280;21895;47.072;15.132;2023-02-13T15:23:22;98507.00;;;9.39;50.84
20930;BME280;21895;47.072;15.132;2023-02-13T15:25:58;98501.00;;;9.40;50.75
20930;BME280;21895;47.072;15.132;2023-02-13T15:28:26;98499.00;;;9.34;50.58
20930;BME280;21895;47.072;15.132;2023-02-13T15:31:06;98505.00;;;9.18;51.03
20930;BME280;21895;47.072;15.132;2023-02-13T15:33:48;98503.00;;;9.07;51.36